map of IQQ home
IQQ - Airport
Location
City:  Iquique, Tarapacá, Chile
Name:Diego Aracena International Airport
ICAO:SCDA
IATA:IQQ

Details
Type:Airport (Aerodrome, Airfield)
Use:Public/Civil, International (customs port of entry)
Latitude:20°32'07"S (-20.535277)
Longitude:70°10'53"W (-70.181388)
Elevation:156 ft (48 m)
Variation:5.19°W (WMM2015v2 magnetic declination)
-0.20° annual change
Runways:1
Longest:10991 × 148 ft (3350 × 45 m), paved

Time
Time Zone:UTC-4 (DST-3)
Local Time:

Weather
METAR:SCDA 041400Z 28006KT CAVOK 23/18 Q1012
TAF:SCDA 041029Z 0412/0512 18004KT 9999 FEW037 BKN230 TX26/0417Z TN21/0506Z
BECMG 0414/0416 22016KT
BECMG 0502/0504 11004KT CAVOK

Related Locations
Nearby:
Farthest:HAK: 12378 mi / 19920 km
Haikou [Meilan Intl], 46, CN

Find:

   beyond  
but within

Other Information
Maps:
NOTAMs:
Links:
Sources:

  
  • flag of Chile
  • flag of Tarapacá
  

Airport Diagram

Airport diagram for IQQ

Larger airport diagram (OBSOLETE) from NGA

Sectional Chart

Flight Planning
at skyvector.com

Satellite Image

Google Maps Satellite view

 

Copyright © 2004-2019 Karl L. Swartz. All rights reserved.
The Great Circle Mapper name and logo are trademarks of the Great Circle Mapper.
All other trademarks mentioned herein belong to their respective owners.
Please see credits for attibutions and further copyright information.

  Follow gcmap on Facebook Follow gcmap on Twitter GCmap on LinkedIn

hCard Microformat

Geo Microformat